CheckWX is a tool to help pilots better visualize weather data.  It is not intended as a substitute for an official pre-flight weather briefing.

01:53:59 UTC

WBKW TAF
Tawau Airport
Tawau, Malaysia
TAF WBKW 182300Z 1900/2000 12005KT 9999 FEW017

Mar-19@
00:00 UTC

Mar-19 @ 00:00 UTC

Mar-20@
00:00 UTC

Mar-20 @ 00:00 UTC

TAF WBKW 182300Z 1900/2000 12005KT 9999 FEW017
Wind
  • 120° at 5 KTS
Cloud Levels
  • Few at 1,700' AGL